sensor_id;sensor_type;location;lat;lon;timestamp;temperature;humidity
63317;DHT22;49822;41.468;13.560;2023-03-16T00:00:55;9.00;65.50
63317;DHT22;49822;41.468;13.560;2023-03-16T00:03:24;9.00;64.70
63317;DHT22;49822;41.468;13.560;2023-03-16T00:05:53;9.20;65.00
63317;DHT22;49822;41.468;13.560;2023-03-16T00:08:20;9.30;63.50
63317;DHT22;49822;41.468;13.560;2023-03-16T00:10:48;9.40;61.80
63317;DHT22;49822;41.468;13.560;2023-03-16T00:13:16;9.50;60.10
63317;DHT22;49822;41.468;13.560;2023-03-16T00:15:53;9.70;59.80
63317;DHT22;49822;41.468;13.560;2023-03-16T00:18:24;9.80;61.10
63317;DHT22;49822;41.468;13.560;2023-03-16T00:20:57;9.70;62.70
63317;DHT22;49822;41.468;13.560;2023-03-16T00:23:25;9.60;63.20
63317;DHT22;49822;41.468;13.560;2023-03-16T00:25:57;9.50;63.70
63317;DHT22;49822;41.468;13.560;2023-03-16T00:28:26;9.50;63.70
63317;DHT22;49822;41.468;13.560;2023-03-16T00:30:54;9.40;64.00
63317;DHT22;49822;41.468;13.560;2023-03-16T00:33:27;9.10;63.70
63317;DHT22;49822;41.468;13.560;2023-03-16T00:35:55;9.10;64.10
63317;DHT22;49822;41.468;13.560;2023-03-16T00:38:35;9.20;64.00
63317;DHT22;49822;41.468;13.560;2023-03-16T00:41:05;9.20;65.00
63317;DHT22;49822;41.468;13.560;2023-03-16T00:43:34;9.30;64.00
63317;DHT22;49822;41.468;13.560;2023-03-16T00:46:14;9.20;63.80
63317;DHT22;49822;41.468;13.560;2023-03-16T00:48:44;9.10;63.80
63317;DHT22;49822;41.468;13.560;2023-03-16T00:51:14;8.70;64.80
63317;DHT22;49822;41.468;13.560;2023-03-16T00:53:44;8.80;65.80
63317;DHT22;49822;41.468;13.560;2023-03-16T00:56:12;8.80;66.90
63317;DHT22;49822;41.468;13.560;2023-03-16T00:58:41;9.00;66.60
63317;DHT22;49822;41.468;13.560;2023-03-16T01:01:13;9.00;66.30
63317;DHT22;49822;41.468;13.560;2023-03-16T01:03:41;8.80;66.50
63317;DHT22;49822;41.468;13.560;2023-03-16T01:06:12;8.40;66.70
63317;DHT22;49822;41.468;13.560;2023-03-16T01:08:41;8.10;67.20
63317;DHT22;49822;41.468;13.560;2023-03-16T01:11:14;7.80;67.00
63317;DHT22;49822;41.468;13.560;2023-03-16T01:13:46;8.10;66.60
63317;DHT22;49822;41.468;13.560;2023-03-16T01:16:15;8.20;66.30
63317;DHT22;49822;41.468;13.560;2023-03-16T01:18:49;8.40;67.30
63317;DHT22;49822;41.468;13.560;2023-03-16T01:21:19;8.40;66.20
63317;DHT22;49822;41.468;13.560;2023-03-16T01:23:49;8.60;65.60
63317;DHT22;49822;41.468;13.560;2023-03-16T01:26:17;8.40;66.80
63317;DHT22;49822;41.468;13.560;2023-03-16T01:28:47;8.40;66.60
63317;DHT22;49822;41.468;13.560;2023-03-16T01:31:15;8.50;67.50
63317;DHT22;49822;41.468;13.560;2023-03-16T01:33:43;8.40;67.60
63317;DHT22;49822;41.468;13.560;2023-03-16T01:36:16;8.40;65.90
63317;DHT22;49822;41.468;13.560;2023-03-16T01:38:52;8.40;65.20
63317;DHT22;49822;41.468;13.560;2023-03-16T01:41:22;8.40;67.50
63317;DHT22;49822;41.468;13.560;2023-03-16T01:43:50;8.40;67.50
63317;DHT22;49822;41.468;13.560;2023-03-16T01:46:23;8.50;67.60
63317;DHT22;49822;41.468;13.560;2023-03-16T01:49:18;8.50;67.80
63317;DHT22;49822;41.468;13.560;2023-03-16T01:52:04;8.40;68.60
63317;DHT22;49822;41.468;13.560;2023-03-16T01:54:46;8.40;68.80
63317;DHT22;49822;41.468;13.560;2023-03-16T01:57:18;8.20;68.50
63317;DHT22;49822;41.468;13.560;2023-03-16T01:59:51;7.80;69.60
63317;DHT22;49822;41.468;13.560;2023-03-16T02:02:22;7.80;70.50
63317;DHT22;49822;41.468;13.560;2023-03-16T02:04:57;7.10;70.90
63317;DHT22;49822;41.468;13.560;2023-03-16T02:07:32;6.60;71.90
63317;DHT22;49822;41.468;13.560;2023-03-16T02:10:03;6.50;71.80
63317;DHT22;49822;41.468;13.560;2023-03-16T02:12:32;6.40;71.80
63317;DHT22;49822;41.468;13.560;2023-03-16T02:15:02;6.50;71.30
63317;DHT22;49822;41.468;13.560;2023-03-16T02:17:31;6.50;70.60
63317;DHT22;49822;41.468;13.560;2023-03-16T02:22:55;6.80;72.50
63317;DHT22;49822;41.468;13.560;2023-03-16T02:25:28;7.10;71.90
63317;DHT22;49822;41.468;13.560;2023-03-16T02:28:17;7.30;71.90
63317;DHT22;49822;41.468;13.560;2023-03-16T02:30:48;7.00;70.80
63317;DHT22;49822;41.468;13.560;2023-03-16T02:33:18;7.10;70.70
63317;DHT22;49822;41.468;13.560;2023-03-16T02:35:49;6.80;70.40
63317;DHT22;49822;41.468;13.560;2023-03-16T02:38:16;6.60;69.60
63317;DHT22;49822;41.468;13.560;2023-03-16T02:41:00;6.50;70.00
63317;DHT22;49822;41.468;13.560;2023-03-16T02:43:34;6.70;70.00
63317;DHT22;49822;41.468;13.560;2023-03-16T02:46:14;6.90;68.20
63317;DHT22;49822;41.468;13.560;2023-03-16T02:49:00;7.10;69.20
63317;DHT22;49822;41.468;13.560;2023-03-16T02:51:29;7.20;68.70
63317;DHT22;49822;41.468;13.560;2023-03-16T02:53:58;7.20;68.90
63317;DHT22;49822;41.468;13.560;2023-03-16T02:56:28;6.90;69.60
63317;DHT22;49822;41.468;13.560;2023-03-16T02:58:56;7.00;69.80
63317;DHT22;49822;41.468;13.560;2023-03-16T03:01:25;7.10;66.70
63317;DHT22;49822;41.468;13.560;2023-03-16T03:03:53;6.80;69.10
63317;DHT22;49822;41.468;13.560;2023-03-16T03:06:21;6.60;71.50
63317;DHT22;49822;41.468;13.560;2023-03-16T03:08:51;6.70;70.50
63317;DHT22;49822;41.468;13.560;2023-03-16T03:11:19;6.90;69.20
63317;DHT22;49822;41.468;13.560;2023-03-16T03:13:46;6.90;70.60
63317;DHT22;49822;41.468;13.560;2023-03-16T03:16:18;6.70;70.50
63317;DHT22;49822;41.468;13.560;2023-03-16T03:18:48;6.70;69.60
63317;DHT22;49822;41.468;13.560;2023-03-16T03:21:16;6.80;70.70
63317;DHT22;49822;41.468;13.560;2023-03-16T03:23:44;6.10;70.90
63317;DHT22;49822;41.468;13.560;2023-03-16T03:26:13;5.40;72.00
63317;DHT22;49822;41.468;13.560;2023-03-16T03:28:45;5.40;71.90
63317;DHT22;49822;41.468;13.560;2023-03-16T03:31:14;5.70;71.20
63317;DHT22;49822;41.468;13.560;2023-03-16T03:33:42;5.90;70.30
63317;DHT22;49822;41.468;13.560;2023-03-16T03:36:11;6.20;69.80
63317;DHT22;49822;41.468;13.560;2023-03-16T03:38:39;6.50;69.70
63317;DHT22;49822;41.468;13.560;2023-03-16T03:41:07;6.50;70.10
63317;DHT22;49822;41.468;13.560;2023-03-16T03:43:37;6.60;70.10
63317;DHT22;49822;41.468;13.560;2023-03-16T03:46:19;6.70;69.10
63317;DHT22;49822;41.468;13.560;2023-03-16T03:49:44;6.70;68.30
63317;DHT22;49822;41.468;13.560;2023-03-16T03:53:07;6.40;69.20
63317;DHT22;49822;41.468;13.560;2023-03-16T03:56:20;6.40;68.90
63317;DHT22;49822;41.468;13.560;2023-03-16T03:58:48;6.60;70.00
63317;DHT22;49822;41.468;13.560;2023-03-16T04:01:25;6.60;69.90
63317;DHT22;49822;41.468;13.560;2023-03-16T04:03:52;6.70;70.10
63317;DHT22;49822;41.468;13.560;2023-03-16T04:06:20;6.60;70.30
63317;DHT22;49822;41.468;13.560;2023-03-16T04:08:47;6.80;70.20
63317;DHT22;49822;41.468;13.560;2023-03-16T04:11:19;6.80;69.50
63317;DHT22;49822;41.468;13.560;2023-03-16T04:13:50;6.70;70.40
63317;DHT22;49822;41.468;13.560;2023-03-16T04:16:20;6.90;70.70
63317;DHT22;49822;41.468;13.560;2023-03-16T04:18:55;6.90;70.90
63317;DHT22;49822;41.468;13.560;2023-03-16T04:21:22;7.00;70.90
63317;DHT22;49822;41.468;13.560;2023-03-16T04:23:51;7.10;71.10
63317;DHT22;49822;41.468;13.560;2023-03-16T04:26:28;7.20;70.80
63317;DHT22;49822;41.468;13.560;2023-03-16T04:28:57;7.20;70.90
63317;DHT22;49822;41.468;13.560;2023-03-16T04:31:24;7.30;70.90
63317;DHT22;49822;41.468;13.560;2023-03-16T04:33:52;7.30;70.50
63317;DHT22;49822;41.468;13.560;2023-03-16T04:36:22;7.30;70.60
63317;DHT22;49822;41.468;13.560;2023-03-16T04:38:53;7.00;70.20
63317;DHT22;49822;41.468;13.560;2023-03-16T04:41:21;7.10;70.40
63317;DHT22;49822;41.468;13.560;2023-03-16T04:43:58;7.00;70.20
63317;DHT22;49822;41.468;13.560;2023-03-16T04:46:26;6.80;70.30
63317;DHT22;49822;41.468;13.560;2023-03-16T04:48:56;6.50;70.80
63317;DHT22;49822;41.468;13.560;2023-03-16T04:51:27;6.40;71.00
63317;DHT22;49822;41.468;13.560;2023-03-16T04:54:03;6.60;71.00
63317;DHT22;49822;41.468;13.560;2023-03-16T04:56:37;6.80;70.80
63317;DHT22;49822;41.468;13.560;2023-03-16T04:59:15;6.80;70.00
63317;DHT22;49822;41.468;13.560;2023-03-16T05:01:49;7.00;70.50
63317;DHT22;49822;41.468;13.560;2023-03-16T05:04:17;7.10;70.50
63317;DHT22;49822;41.468;13.560;2023-03-16T05:06:47;7.20;70.20
63317;DHT22;49822;41.468;13.560;2023-03-16T05:09:17;7.20;70.30
63317;DHT22;49822;41.468;13.560;2023-03-16T05:11:47;6.80;70.20
63317;DHT22;49822;41.468;13.560;2023-03-16T05:14:14;6.60;70.60
63317;DHT22;49822;41.468;13.560;2023-03-16T05:16:56;6.70;71.50
63317;DHT22;49822;41.468;13.560;2023-03-16T05:19:23;6.80;70.70
63317;DHT22;49822;41.468;13.560;2023-03-16T05:21:51;6.70;71.20
63317;DHT22;49822;41.468;13.560;2023-03-16T05:24:18;6.50;71.00
63317;DHT22;49822;41.468;13.560;2023-03-16T05:26:46;6.40;70.80
63317;DHT22;49822;41.468;13.560;2023-03-16T05:29:16;6.50;71.50
63317;DHT22;49822;41.468;13.560;2023-03-16T05:31:45;6.30;71.80
63317;DHT22;49822;41.468;13.560;2023-03-16T05:34:19;6.60;71.90
63317;DHT22;49822;41.468;13.560;2023-03-16T05:36:47;6.50;71.90
63317;DHT22;49822;41.468;13.560;2023-03-16T05:39:16;6.70;72.50
63317;DHT22;49822;41.468;13.560;2023-03-16T05:41:47;6.90;72.40
63317;DHT22;49822;41.468;13.560;2023-03-16T05:44:20;7.00;71.60
63317;DHT22;49822;41.468;13.560;2023-03-16T05:47:23;7.00;71.40
63317;DHT22;49822;41.468;13.560;2023-03-16T05:49:54;7.00;71.60
63317;DHT22;49822;41.468;13.560;2023-03-16T05:52:31;6.90;71.00
63317;DHT22;49822;41.468;13.560;2023-03-16T05:55:07;6.90;70.20
63317;DHT22;49822;41.468;13.560;2023-03-16T05:57:37;7.00;71.40
63317;DHT22;49822;41.468;13.560;2023-03-16T06:00:08;7.00;71.70
63317;DHT22;49822;41.468;13.560;2023-03-16T06:02:49;7.20;71.80
63317;DHT22;49822;41.468;13.560;2023-03-16T06:05:20;7.30;71.60
63317;DHT22;49822;41.468;13.560;2023-03-16T06:07:51;7.20;71.60
63317;DHT22;49822;41.468;13.560;2023-03-16T06:10:19;7.40;71.90
63317;DHT22;49822;41.468;13.560;2023-03-16T06:12:47;7.50;71.60
63317;DHT22;49822;41.468;13.560;2023-03-16T06:15:17;7.40;71.10
63317;DHT22;49822;41.468;13.560;2023-03-16T06:17:45;7.30;71.20
63317;DHT22;49822;41.468;13.560;2023-03-16T06:20:19;7.60;71.20
63317;DHT22;49822;41.468;13.560;2023-03-16T06:22:59;7.70;71.90
63317;DHT22;49822;41.468;13.560;2023-03-16T06:25:27;7.80;72.00
63317;DHT22;49822;41.468;13.560;2023-03-16T06:27:55;7.80;71.80
63317;DHT22;49822;41.468;13.560;2023-03-16T06:30:23;8.00;72.00
63317;DHT22;49822;41.468;13.560;2023-03-16T06:32:51;8.10;71.90
63317;DHT22;49822;41.468;13.560;2023-03-16T06:35:20;8.20;71.30
63317;DHT22;49822;41.468;13.560;2023-03-16T06:38:03;8.40;72.20
63317;DHT22;49822;41.468;13.560;2023-03-16T06:40:59;8.60;71.60
63317;DHT22;49822;41.468;13.560;2023-03-16T06:43:30;8.60;71.00
63317;DHT22;49822;41.468;13.560;2023-03-16T06:45:59;8.80;70.60
63317;DHT22;49822;41.468;13.560;2023-03-16T06:48:29;8.80;70.10
63317;DHT22;49822;41.468;13.560;2023-03-16T06:50:57;9.00;70.10
63317;DHT22;49822;41.468;13.560;2023-03-16T06:53:26;9.10;70.50
63317;DHT22;49822;41.468;13.560;2023-03-16T06:55:55;8.90;70.50
63317;DHT22;49822;41.468;13.560;2023-03-16T06:58:25;9.00;70.40
63317;DHT22;49822;41.468;13.560;2023-03-16T07:00:54;9.30;70.20
63317;DHT22;49822;41.468;13.560;2023-03-16T07:03:24;9.40;69.90
63317;DHT22;49822;41.468;13.560;2023-03-16T07:05:57;9.40;69.50
63317;DHT22;49822;41.468;13.560;2023-03-16T07:08:25;9.60;69.50
63317;DHT22;49822;41.468;13.560;2023-03-16T07:10:53;9.80;68.70
63317;DHT22;49822;41.468;13.560;2023-03-16T07:13:20;9.90;67.40
63317;DHT22;49822;41.468;13.560;2023-03-16T07:15:52;9.80;67.20
63317;DHT22;49822;41.468;13.560;2023-03-16T07:18:22;10.00;67.70
63317;DHT22;49822;41.468;13.560;2023-03-16T07:20:53;10.20;67.70
63317;DHT22;49822;41.468;13.560;2023-03-16T07:23:24;10.20;67.10
63317;DHT22;49822;41.468;13.560;2023-03-16T07:25:57;10.30;66.30
63317;DHT22;49822;41.468;13.560;2023-03-16T07:28:25;10.40;66.20
63317;DHT22;49822;41.468;13.560;2023-03-16T07:30:59;10.50;66.10
63317;DHT22;49822;41.468;13.560;2023-03-16T07:33:36;10.70;68.10
63317;DHT22;49822;41.468;13.560;2023-03-16T07:36:07;10.80;68.20
63317;DHT22;49822;41.468;13.560;2023-03-16T07:38:43;10.90;67.00
63317;DHT22;49822;41.468;13.560;2023-03-16T07:41:13;11.10;66.80
63317;DHT22;49822;41.468;13.560;2023-03-16T07:43:40;11.10;67.00
63317;DHT22;49822;41.468;13.560;2023-03-16T07:46:10;11.30;66.80
63317;DHT22;49822;41.468;13.560;2023-03-16T07:48:42;11.30;66.00
63317;DHT22;49822;41.468;13.560;2023-03-16T07:51:12;11.40;64.70
63317;DHT22;49822;41.468;13.560;2023-03-16T07:53:44;11.40;64.40
63317;DHT22;49822;41.468;13.560;2023-03-16T07:56:17;11.50;65.60
63317;DHT22;49822;41.468;13.560;2023-03-16T07:58:48;11.70;64.60
63317;DHT22;49822;41.468;13.560;2023-03-16T08:01:16;11.70;64.20
63317;DHT22;49822;41.468;13.560;2023-03-16T08:03:43;11.90;63.00
63317;DHT22;49822;41.468;13.560;2023-03-16T08:06:11;11.90;60.20
63317;DHT22;49822;41.468;13.560;2023-03-16T08:08:40;12.10;61.30
63317;DHT22;49822;41.468;13.560;2023-03-16T08:11:09;12.20;61.00
63317;DHT22;49822;41.468;13.560;2023-03-16T08:13:48;12.20;61.40
63317;DHT22;49822;41.468;13.560;2023-03-16T08:16:21;12.50;60.60
63317;DHT22;49822;41.468;13.560;2023-03-16T08:18:49;12.40;61.40
63317;DHT22;49822;41.468;13.560;2023-03-16T08:21:19;12.70;60.70
63317;DHT22;49822;41.468;13.560;2023-03-16T08:23:46;12.80;60.20
63317;DHT22;49822;41.468;13.560;2023-03-16T08:26:22;12.80;60.70
63317;DHT22;49822;41.468;13.560;2023-03-16T08:28:54;13.00;61.00
63317;DHT22;49822;41.468;13.560;2023-03-16T08:31:22;13.10;59.70
63317;DHT22;49822;41.468;13.560;2023-03-16T08:34:04;13.20;59.40
63317;DHT22;49822;41.468;13.560;2023-03-16T08:36:37;13.20;58.90
63317;DHT22;49822;41.468;13.560;2023-03-16T08:39:05;13.40;58.50
63317;DHT22;49822;41.468;13.560;2023-03-16T08:41:42;13.40;56.50
63317;DHT22;49822;41.468;13.560;2023-03-16T08:44:20;13.50;57.30
63317;DHT22;49822;41.468;13.560;2023-03-16T08:46:49;13.70;57.60
63317;DHT22;49822;41.468;13.560;2023-03-16T08:49:19;13.70;53.40
63317;DHT22;49822;41.468;13.560;2023-03-16T08:51:53;13.50;52.60
63317;DHT22;49822;41.468;13.560;2023-03-16T08:54:20;13.50;51.10
63317;DHT22;49822;41.468;13.560;2023-03-16T08:56:48;13.60;53.40
63317;DHT22;49822;41.468;13.560;2023-03-16T08:59:17;13.70;52.40
63317;DHT22;49822;41.468;13.560;2023-03-16T09:01:55;13.70;53.30
63317;DHT22;49822;41.468;13.560;2023-03-16T09:04:22;13.80;51.60
63317;DHT22;49822;41.468;13.560;2023-03-16T09:06:50;13.80;51.80
63317;DHT22;49822;41.468;13.560;2023-03-16T09:09:34;14.00;52.10
63317;DHT22;49822;41.468;13.560;2023-03-16T09:12:02;14.00;50.10
63317;DHT22;49822;41.468;13.560;2023-03-16T09:14:30;14.00;50.70
63317;DHT22;49822;41.468;13.560;2023-03-16T09:16:58;14.20;52.20
63317;DHT22;49822;41.468;13.560;2023-03-16T09:19:25;14.40;51.20
63317;DHT22;49822;41.468;13.560;2023-03-16T09:21:58;14.50;50.80
63317;DHT22;49822;41.468;13.560;2023-03-16T09:24:26;14.60;50.50
63317;DHT22;49822;41.468;13.560;2023-03-16T09:26:53;14.90;49.40
63317;DHT22;49822;41.468;13.560;2023-03-16T09:29:22;14.70;48.90
63317;DHT22;49822;41.468;13.560;2023-03-16T09:31:49;14.80;49.30
63317;DHT22;49822;41.468;13.560;2023-03-16T09:34:17;14.90;49.60
63317;DHT22;49822;41.468;13.560;2023-03-16T09:36:44;14.90;49.10
63317;DHT22;49822;41.468;13.560;2023-03-16T09:39:12;14.90;49.40
63317;DHT22;49822;41.468;13.560;2023-03-16T09:41:46;14.80;48.40
63317;DHT22;49822;41.468;13.560;2023-03-16T09:47:02;15.10;47.10
63317;DHT22;49822;41.468;13.560;2023-03-16T09:49:41;15.10;48.20
63317;DHT22;49822;41.468;13.560;2023-03-16T09:54:52;15.30;45.80
63317;DHT22;49822;41.468;13.560;2023-03-16T10:00:01;15.60;47.50
63317;DHT22;49822;41.468;13.560;2023-03-16T10:03:03;15.70;45.80
63317;DHT22;49822;41.468;13.560;2023-03-16T10:05:33;15.80;46.90
63317;DHT22;49822;41.468;13.560;2023-03-16T10:08:24;16.10;45.80
63317;DHT22;49822;41.468;13.560;2023-03-16T10:16:47;16.30;46.60
63317;DHT22;49822;41.468;13.560;2023-03-16T10:19:48;16.50;46.90
63317;DHT22;49822;41.468;13.560;2023-03-16T10:22:22;16.70;47.60
63317;DHT22;49822;41.468;13.560;2023-03-16T10:27:38;17.00;44.50
63317;DHT22;49822;41.468;13.560;2023-03-16T10:30:25;16.90;45.00
63317;DHT22;49822;41.468;13.560;2023-03-16T10:32:59;17.20;45.20
63317;DHT22;49822;41.468;13.560;2023-03-16T10:46:23;18.30;45.30
63317;DHT22;49822;41.468;13.560;2023-03-16T10:48:54;18.40;45.30
63317;DHT22;49822;41.468;13.560;2023-03-16T10:51:31;18.40;45.00
63317;DHT22;49822;41.468;13.560;2023-03-16T10:54:13;18.60;45.80
63317;DHT22;49822;41.468;13.560;2023-03-16T10:56:41;18.70;43.40
63317;DHT22;49822;41.468;13.560;2023-03-16T10:59:21;18.00;41.30
63317;DHT22;49822;41.468;13.560;2023-03-16T11:01:51;17.70;42.30
63317;DHT22;49822;41.468;13.560;2023-03-16T11:04:19;17.90;44.20
63317;DHT22;49822;41.468;13.560;2023-03-16T11:06:56;18.10;44.50
63317;DHT22;49822;41.468;13.560;2023-03-16T11:09:30;17.70;44.10
63317;DHT22;49822;41.468;13.560;2023-03-16T11:12:11;17.40;42.10
63317;DHT22;49822;41.468;13.560;2023-03-16T11:14:44;16.60;41.10
63317;DHT22;49822;41.468;13.560;2023-03-16T11:17:14;16.30;44.20
63317;DHT22;49822;41.468;13.560;2023-03-16T11:19:55;16.40;42.50
63317;DHT22;49822;41.468;13.560;2023-03-16T11:22:26;16.30;43.40
63317;DHT22;49822;41.468;13.560;2023-03-16T11:25:03;16.50;42.50
63317;DHT22;49822;41.468;13.560;2023-03-16T11:27:50;16.90;43.00
63317;DHT22;49822;41.468;13.560;2023-03-16T11:33:12;17.80;44.50
63317;DHT22;49822;41.468;13.560;2023-03-16T11:35:56;18.20;43.20
63317;DHT22;49822;41.468;13.560;2023-03-16T11:41:08;18.80;42.90
63317;DHT22;49822;41.468;13.560;2023-03-16T11:43:48;19.00;44.20
63317;DHT22;49822;41.468;13.560;2023-03-16T11:46:30;19.20;43.20
63317;DHT22;49822;41.468;13.560;2023-03-16T11:52:34;18.60;42.40
63317;DHT22;49822;41.468;13.560;2023-03-16T12:00:11;18.90;43.10
63317;DHT22;49822;41.468;13.560;2023-03-16T12:02:48;17.70;41.80
63317;DHT22;49822;41.468;13.560;2023-03-16T12:08:28;17.90;41.50
63317;DHT22;49822;41.468;13.560;2023-03-16T12:11:02;18.00;43.50
63317;DHT22;49822;41.468;13.560;2023-03-16T12:19:38;17.80;41.80
63317;DHT22;49822;41.468;13.560;2023-03-16T12:22:30;18.20;39.90
63317;DHT22;49822;41.468;13.560;2023-03-16T12:24:55;17.90;40.50
63317;DHT22;49822;41.468;13.560;2023-03-16T12:27:30;17.80;41.90
63317;DHT22;49822;41.468;13.560;2023-03-16T12:35:44;17.80;41.60
63317;DHT22;49822;41.468;13.560;2023-03-16T12:38:44;18.20;40.50
63317;DHT22;49822;41.468;13.560;2023-03-16T12:44:18;18.80;40.50
63317;DHT22;49822;41.468;13.560;2023-03-16T12:49:23;19.10;41.20
63317;DHT22;49822;41.468;13.560;2023-03-16T12:52:03;18.70;42.30
63317;DHT22;49822;41.468;13.560;2023-03-16T12:54:30;19.00;40.40
63317;DHT22;49822;41.468;13.560;2023-03-16T12:57:08;19.50;40.70
63317;DHT22;49822;41.468;13.560;2023-03-16T12:59:46;19.90;43.40
63317;DHT22;49822;41.468;13.560;2023-03-16T13:02:19;20.20;43.00
63317;DHT22;49822;41.468;13.560;2023-03-16T13:04:58;20.50;41.30
63317;DHT22;49822;41.468;13.560;2023-03-16T13:07:29;20.80;42.00
63317;DHT22;49822;41.468;13.560;2023-03-16T13:12:37;21.10;41.60
63317;DHT22;49822;41.468;13.560;2023-03-16T13:18:01;21.00;39.10
63317;DHT22;49822;41.468;13.560;2023-03-16T13:20:32;20.90;39.50
63317;DHT22;49822;41.468;13.560;2023-03-16T13:25:58;20.90;37.70
63317;DHT22;49822;41.468;13.560;2023-03-16T13:28:32;21.20;40.80
63317;DHT22;49822;41.468;13.560;2023-03-16T13:31:01;21.40;40.60
63317;DHT22;49822;41.468;13.560;2023-03-16T13:33:32;21.70;40.50
63317;DHT22;49822;41.468;13.560;2023-03-16T13:36:04;21.80;40.00
63317;DHT22;49822;41.468;13.560;2023-03-16T13:38:32;19.90;37.70
63317;DHT22;49822;41.468;13.560;2023-03-16T13:41:08;19.40;39.60
63317;DHT22;49822;41.468;13.560;2023-03-16T13:43:42;19.00;40.50
63317;DHT22;49822;41.468;13.560;2023-03-16T13:46:17;19.50;42.10
63317;DHT22;49822;41.468;13.560;2023-03-16T13:48:46;20.00;41.20
63317;DHT22;49822;41.468;13.560;2023-03-16T13:51:19;20.10;38.30
63317;DHT22;49822;41.468;13.560;2023-03-16T13:53:48;19.80;40.10
63317;DHT22;49822;41.468;13.560;2023-03-16T13:56:21;19.80;42.20
63317;DHT22;49822;41.468;13.560;2023-03-16T13:58:54;20.20;41.10
63317;DHT22;49822;41.468;13.560;2023-03-16T14:01:28;20.70;42.30
63317;DHT22;49822;41.468;13.560;2023-03-16T14:04:00;20.90;41.30
63317;DHT22;49822;41.468;13.560;2023-03-16T14:06:35;20.60;39.90
63317;DHT22;49822;41.468;13.560;2023-03-16T14:09:23;21.10;39.50
63317;DHT22;49822;41.468;13.560;2023-03-16T14:11:52;21.40;40.40
63317;DHT22;49822;41.468;13.560;2023-03-16T14:14:37;21.60;39.70
63317;DHT22;49822;41.468;13.560;2023-03-16T14:17:17;20.50;37.80
63317;DHT22;49822;41.468;13.560;2023-03-16T14:19:51;19.50;38.60
63317;DHT22;49822;41.468;13.560;2023-03-16T14:22:22;19.20;39.20
63317;DHT22;49822;41.468;13.560;2023-03-16T14:24:56;19.30;39.40
63317;DHT22;49822;41.468;13.560;2023-03-16T14:27:41;18.60;40.00
63317;DHT22;49822;41.468;13.560;2023-03-16T14:32:52;18.50;39.20
63317;DHT22;49822;41.468;13.560;2023-03-16T14:35:21;18.50;40.40
63317;DHT22;49822;41.468;13.560;2023-03-16T14:37:51;18.50;39.60
63317;DHT22;49822;41.468;13.560;2023-03-16T14:40:29;18.60;40.50
63317;DHT22;49822;41.468;13.560;2023-03-16T14:42:59;19.10;40.60
63317;DHT22;49822;41.468;13.560;2023-03-16T14:45:34;19.10;38.90
63317;DHT22;49822;41.468;13.560;2023-03-16T14:48:18;19.60;39.90
63317;DHT22;49822;41.468;13.560;2023-03-16T14:50:55;20.00;39.40
63317;DHT22;49822;41.468;13.560;2023-03-16T14:53:23;20.40;38.80
63317;DHT22;49822;41.468;13.560;2023-03-16T14:55:55;20.30;38.50
63317;DHT22;49822;41.468;13.560;2023-03-16T14:58:23;20.30;39.70
63317;DHT22;49822;41.468;13.560;2023-03-16T15:01:00;20.20;39.10
63317;DHT22;49822;41.468;13.560;2023-03-16T15:03:52;20.60;40.10
63317;DHT22;49822;41.468;13.560;2023-03-16T15:06:19;21.00;39.30
63317;DHT22;49822;41.468;13.560;2023-03-16T15:08:47;20.70;37.90
63317;DHT22;49822;41.468;13.560;2023-03-16T15:11:16;20.70;36.80
63317;DHT22;49822;41.468;13.560;2023-03-16T15:13:48;20.50;36.20
63317;DHT22;49822;41.468;13.560;2023-03-16T15:16:15;20.00;35.90
63317;DHT22;49822;41.468;13.560;2023-03-16T15:18:43;20.70;38.60
63317;DHT22;49822;41.468;13.560;2023-03-16T15:21:17;21.80;36.70
63317;DHT22;49822;41.468;13.560;2023-03-16T15:23:47;22.90;37.70
63317;DHT22;49822;41.468;13.560;2023-03-16T15:26:17;24.30;36.60
63317;DHT22;49822;41.468;13.560;2023-03-16T15:28:50;25.90;36.80
63317;DHT22;49822;41.468;13.560;2023-03-16T15:31:18;27.60;35.20
63317;DHT22;49822;41.468;13.560;2023-03-16T15:33:46;28.80;34.80
63317;DHT22;49822;41.468;13.560;2023-03-16T15:36:16;29.90;35.20
63317;DHT22;49822;41.468;13.560;2023-03-16T15:38:47;30.70;34.50
63317;DHT22;49822;41.468;13.560;2023-03-16T15:41:16;30.60;34.60
63317;DHT22;49822;41.468;13.560;2023-03-16T15:43:44;30.90;33.80
63317;DHT22;49822;41.468;13.560;2023-03-16T15:46:12;31.20;33.80
63317;DHT22;49822;41.468;13.560;2023-03-16T15:48:41;30.90;33.80
63317;DHT22;49822;41.468;13.560;2023-03-16T15:51:19;31.00;34.70
63317;DHT22;49822;41.468;13.560;2023-03-16T15:53:53;31.00;34.70
63317;DHT22;49822;41.468;13.560;2023-03-16T15:56:26;30.30;35.50
63317;DHT22;49822;41.468;13.560;2023-03-16T15:58:59;29.70;35.70
63317;DHT22;49822;41.468;13.560;2023-03-16T16:01:29;29.50;35.60
63317;DHT22;49822;41.468;13.560;2023-03-16T16:04:00;30.00;35.40
63317;DHT22;49822;41.468;13.560;2023-03-16T16:06:27;30.30;35.30
63317;DHT22;49822;41.468;13.560;2023-03-16T16:08:56;30.20;35.10
63317;DHT22;49822;41.468;13.560;2023-03-16T16:11:29;29.90;35.50
63317;DHT22;49822;41.468;13.560;2023-03-16T16:13:57;28.90;36.70
63317;DHT22;49822;41.468;13.560;2023-03-16T16:16:26;27.50;37.20
63317;DHT22;49822;41.468;13.560;2023-03-16T16:18:58;26.10;38.70
63317;DHT22;49822;41.468;13.560;2023-03-16T16:21:27;24.60;39.50
63317;DHT22;49822;41.468;13.560;2023-03-16T16:23:57;23.50;41.30
63317;DHT22;49822;41.468;13.560;2023-03-16T16:29:16;21.70;43.10
63317;DHT22;49822;41.468;13.560;2023-03-16T16:31:44;20.90;42.40
63317;DHT22;49822;41.468;13.560;2023-03-16T16:34:13;20.20;43.10
63317;DHT22;49822;41.468;13.560;2023-03-16T16:36:42;19.70;43.20
63317;DHT22;49822;41.468;13.560;2023-03-16T16:39:10;19.30;44.10
63317;DHT22;49822;41.468;13.560;2023-03-16T16:41:38;18.80;43.90
63317;DHT22;49822;41.468;13.560;2023-03-16T16:44:19;18.20;43.20
63317;DHT22;49822;41.468;13.560;2023-03-16T16:46:49;17.60;44.50
63317;DHT22;49822;41.468;13.560;2023-03-16T16:49:21;17.10;46.00
63317;DHT22;49822;41.468;13.560;2023-03-16T16:51:51;16.90;46.80
63317;DHT22;49822;41.468;13.560;2023-03-16T16:54:21;16.80;46.20
63317;DHT22;49822;41.468;13.560;2023-03-16T16:56:52;16.70;46.70
63317;DHT22;49822;41.468;13.560;2023-03-16T16:59:22;16.50;48.70
63317;DHT22;49822;41.468;13.560;2023-03-16T17:01:51;16.30;46.90
63317;DHT22;49822;41.468;13.560;2023-03-16T17:04:22;16.00;47.70
63317;DHT22;49822;41.468;13.560;2023-03-16T17:06:52;16.00;48.60
63317;DHT22;49822;41.468;13.560;2023-03-16T17:09:22;15.90;48.10
63317;DHT22;49822;41.468;13.560;2023-03-16T17:11:49;15.80;49.00
63317;DHT22;49822;41.468;13.560;2023-03-16T17:14:19;15.70;48.90